Frankford, Minnesota
Current Conditions -  °F | °C
As of 1:54 PM on Friday 28 Nov 2014 (Local Time) from KRST Reporting Station
Overcast Overcast  
Wind Chill:   Ceiling: 8000
Heat Index: 22°   Visibility: 9mi
Dew Point: 17°   Wind: 14mph
Humidity: 82%   Direction: 140°SE
Pressure: 29.83"   Gusts: NA
Location:  43.7143°N, 92.5748°W
Report Text: KRST 281954Z 14012KT 9SM BKN080 OVC100 M06/M08 A2983 RMK AO2 SLP125 I1000 T10561083
Loading
Personal Weather Stations






























Interactive Weather Map New forecast layout! Learn more

10-Day Weather Forecast

Advertisements
Track Severe Weather on mobile